Time;durP1;ratioP1;P1;durP2;ratioP2;P2;SDS_P1;SDS_P2;PMS_P1;PMS_P2;Temp;Humidity;BMP_temperature;BMP_pressure;BME280_temperature;BME280_humidity;BME280_pressure;Samples;Min_cycle;Max_cycle;Signal;HPM_P1;HPM_P2
2021/06/23 00:01:03;;;;;;;1.08;1.00;;;18.80;99.90;;;;;;5066072;28;20118;-81
2021/06/23 00:03:29;;;;;;;4.10;1.00;;;18.80;99.90;;;;;;5060587;28;20079;-81
2021/06/23 00:05:55;;;;;;;2.67;1.02;;;18.70;99.90;;;;;;5072274;28;20017;-82
2021/06/23 00:08:21;;;;;;;2.15;1.25;;;18.60;99.90;;;;;;5070957;28;20031;-82
2021/06/23 00:10:49;;;;;;;5.60;1.40;;;18.70;99.90;;;;;;5071998;28;20046;-81
2021/06/23 00:13:15;;;;;;;2.13;1.55;;;18.70;99.90;;;;;;5071956;28;20518;-81
2021/06/23 00:15:40;;;;;;;1.08;1.00;;;18.80;99.90;;;;;;5072110;28;20052;-81
2021/06/23 00:18:06;;;;;;;2.20;1.50;;;18.70;99.90;;;;;;5055256;28;20439;-81
2021/06/23 00:20:33;;;;;;;5.03;1.23;;;18.70;99.90;;;;;;5055722;28;20037;-81
2021/06/23 00:23:00;;;;;;;2.33;0.80;;;18.80;99.90;;;;;;5055369;28;20504;-81
2021/06/23 00:25:26;;;;;;;2.95;1.33;;;18.80;99.90;;;;;;5055689;28;20122;-82
2021/06/23 00:27:52;;;;;;;1.48;1.30;;;18.80;99.90;;;;;;5055591;28;20489;-82
2021/06/23 00:30:18;;;;;;;2.65;1.02;;;18.80;99.90;;;;;;5056212;28;20044;-82
2021/06/23 00:32:45;;;;;;;3.35;1.23;;;18.60;99.90;;;;;;5055590;28;20017;-82
2021/06/23 00:35:12;;;;;;;1.55;1.20;;;18.40;99.90;;;;;;5055509;28;20400;-82
2021/06/23 00:37:38;;;;;;;3.00;1.50;;;18.50;99.90;;;;;;5069660;28;20068;-82
2021/06/23 00:40:06;;;;;;;2.25;1.23;;;18.50;99.90;;;;;;5075296;28;20028;-82
2021/06/23 00:42:33;;;;;;;1.33;1.23;;;18.50;99.90;;;;;;5075368;28;20416;-82
2021/06/23 00:45:01;;;;;;;2.15;0.90;;;18.60;99.90;;;;;;5073949;28;20032;-82
2021/06/23 00:47:27;;;;;;;1.23;1.02;;;18.60;99.90;;;;;;5075248;28;20024;-81
2021/06/23 00:49:53;;;;;;;5.07;1.30;;;18.50;99.90;;;;;;5075280;28;20047;-82
2021/06/23 00:52:20;;;;;;;2.33;0.93;;;18.30;99.90;;;;;;5075068;28;20040;-82
2021/06/23 00:54:51;;;;;;;2.28;1.20;;;18.00;99.90;;;;;;5074923;28;20039;-82
2021/06/23 00:57:18;;;;;;;2.45;1.40;;;17.90;99.90;;;;;;5070970;28;20075;-82
2021/06/23 00:59:47;;;;;;;3.20;2.40;;;17.90;99.90;;;;;;5054849;28;20086;-82
2021/06/23 01:02:13;;;;;;;2.10;1.00;;;17.80;99.90;;;;;;5055116;28;20075;-82
2021/06/23 01:04:40;;;;;;;3.65;1.13;;;17.80;99.90;;;;;;5073216;28;20447;-81
2021/06/23 01:07:06;;;;;;;2.15;1.10;;;17.60;99.90;;;;;;5074822;28;20021;-82
2021/06/23 01:09:32;;;;;;;3.33;1.08;;;17.20;99.90;;;;;;5075048;28;20365;-82
2021/06/23 01:12:22;;;;;;;7.47;1.42;;;17.10;99.90;;;;;;5074700;28;20031;-81
2021/06/23 01:14:51;;;;;;;1.25;1.00;;;17.20;99.90;;;;;;5073501;28;20479;-81
2021/06/23 01:17:19;;;;;;;3.10;1.40;;;17.20;99.90;;;;;;5074788;28;20052;-81
2021/06/23 01:19:47;;;;;;;2.10;1.55;;;17.30;99.90;;;;;;5073636;28;20052;-81
2021/06/23 01:22:15;;;;;;;3.47;1.33;;;17.50;99.90;;;;;;5074552;28;20031;-81
2021/06/23 01:24:41;;;;;;;2.50;1.40;;;17.40;99.90;;;;;;5074570;28;20032;-81
2021/06/23 01:27:08;;;;;;;3.08;1.20;;;17.40;99.90;;;;;;5071910;28;20024;-81
2021/06/23 01:29:35;;;;;;;2.35;1.25;;;17.40;99.90;;;;;;5053977;28;20392;-81
2021/06/23 01:32:01;;;;;;;3.65;1.63;;;17.10;99.90;;;;;;5054443;28;20021;-81
2021/06/23 01:34:27;;;;;;;6.30;1.00;;;17.20;99.90;;;;;;5054148;28;20503;-82
2021/06/23 01:36:53;;;;;;;5.35;1.52;;;17.10;99.90;;;;;;5054172;28;20151;-81
2021/06/23 01:39:18;;;;;;;2.65;1.23;;;17.10;99.90;;;;;;5054243;28;20025;-81
2021/06/23 01:41:44;;;;;;;4.90;1.30;;;16.60;99.90;;;;;;5054173;28;20024;-81
2021/06/23 01:44:10;;;;;;;5.05;1.10;;;16.30;99.90;;;;;;5054267;28;20032;-81
2021/06/23 01:46:36;;;;;;;2.78;1.27;;;16.20;99.90;;;;;;5054212;28;20075;-81
2021/06/23 01:49:01;;;;;;;2.90;1.90;;;15.90;99.90;;;;;;5054920;28;20063;-81
2021/06/23 01:51:27;;;;;;;3.95;1.48;;;16.00;99.90;;;;;;5054191;28;20159;-81
2021/06/23 01:53:53;;;;;;;2.17;1.45;;;16.10;99.90;;;;;;5053911;28;20033;-82
2021/06/23 01:56:19;;;;;;;1.55;1.35;;;16.20;99.90;;;;;;5052804;28;20095;-82
2021/06/23 01:58:45;;;;;;;4.50;1.88;;;16.50;99.90;;;;;;5053839;28;20074;-81
2021/06/23 02:01:14;;;;;;;1.85;1.33;;;16.60;99.90;;;;;;5053833;28;20017;-81
2021/06/23 02:03:51;;;;;;;2.58;1.63;;;16.70;99.90;;;;;;5063587;28;20086;-81
2021/06/23 02:06:48;;;;;;;2.17;1.33;;;16.80;99.90;;;;;;5061540;28;20107;-82
2021/06/23 02:09:58;;;;;;;3.72;1.33;;;16.90;99.90;;;;;;5053751;28;20244;-82
2021/06/23 02:12:29;;;;;;;4.07;1.60;;;16.80;99.90;;;;;;5053781;28;20536;-82
2021/06/23 02:14:57;;;;;;;5.03;1.92;;;16.80;99.90;;;;;;5053669;28;20112;-82
2021/06/23 02:17:24;;;;;;;3.28;1.33;;;16.70;99.90;;;;;;5053599;28;20396;-81
2021/06/23 02:19:51;;;;;;;3.38;1.27;;;16.40;99.90;;;;;;5067491;28;20055;-82
2021/06/23 02:22:23;;;;;;;6.43;1.77;;;16.40;99.90;;;;;;5073534;28;20103;-81
2021/06/23 02:24:53;;;;;;;2.55;1.05;;;16.40;99.90;;;;;;5073232;28;20095;-81
2021/06/23 02:27:18;;;;;;;;;;;16.50;99.90;;;;;;5068176;28;20571;-81
2021/06/23 02:29:45;;;;;;;2.90;1.40;;;16.50;99.90;;;;;;5053473;28;19904;-81
2021/06/23 02:32:16;;;;;;;2.28;1.88;;;16.50;99.90;;;;;;5053327;28;20025;-82
2021/06/23 02:34:48;;;;;;;2.35;1.90;;;16.40;99.90;;;;;;5052931;28;20492;-81
2021/06/23 02:37:15;;;;;;;3.45;1.30;;;16.00;99.90;;;;;;5053045;28;20044;-81
2021/06/23 02:39:41;;;;;;;2.80;1.40;;;16.00;99.90;;;;;;5053317;28;20025;-81
2021/06/23 02:42:09;;;;;;;3.45;1.70;;;16.00;99.90;;;;;;5052333;28;20029;-81
2021/06/23 02:44:35;;;;;;;1.45;1.35;;;16.10;99.90;;;;;;5053213;28;20024;-81
2021/06/23 02:47:02;;;;;;;3.75;1.50;;;16.10;99.90;;;;;;5052533;28;20032;-81
2021/06/23 02:49:29;;;;;;;1.73;1.52;;;16.20;99.90;;;;;;5052700;28;20524;-81
2021/06/23 02:51:57;;;;;;;4.25;1.70;;;16.20;99.90;;;;;;5051651;28;20054;-81
2021/06/23 02:54:24;;;;;;;2.55;1.75;;;16.10;99.90;;;;;;5051729;28;20035;-82
2021/06/23 02:56:51;;;;;;;5.00;1.60;;;16.00;99.90;;;;;;5052782;28;20029;-81
2021/06/23 02:59:19;;;;;;;2.65;2.00;;;16.10;99.90;;;;;;5052821;28;20016;-81
2021/06/23 03:01:46;;;;;;;4.63;2.00;;;16.10;99.90;;;;;;5052550;28;20036;-81
2021/06/23 03:04:13;;;;;;;2.90;1.60;;;16.00;99.90;;;;;;5067160;28;20033;-82
2021/06/23 03:06:39;;;;;;;7.18;2.65;;;16.20;99.90;;;;;;5072939;28;20020;-82
2021/06/23 03:09:05;;;;;;;5.15;1.80;;;16.20;99.90;;;;;;5072770;28;20024;-82
2021/06/23 03:11:37;;;;;;;2.42;1.35;;;16.20;99.90;;;;;;5072782;28;20036;-82
2021/06/23 03:14:03;;;;;;;3.03;1.92;;;16.10;99.90;;;;;;5072564;28;20504;-81
2021/06/23 03:16:29;;;;;;;2.08;1.70;;;16.00;99.90;;;;;;5071528;28;20056;-81
2021/06/23 03:18:55;;;;;;;3.15;1.60;;;15.70;99.90;;;;;;5072298;28;20040;-81
2021/06/23 03:21:21;;;;;;;2.28;1.83;;;15.70;99.90;;;;;;5072914;28;20094;-81
2021/06/23 03:23:48;;;;;;;3.55;1.55;;;15.80;99.90;;;;;;5072606;28;20094;-82
2021/06/23 03:26:14;;;;;;;2.78;2.17;;;15.70;99.90;;;;;;5071190;28;20036;-81
2021/06/23 03:28:40;;;;;;;10.00;2.75;;;15.70;99.90;;;;;;5072216;28;20033;-81
2021/06/23 03:31:06;;;;;;;17.55;2.55;;;15.50;99.90;;;;;;5072187;28;20032;-81
2021/06/23 03:33:32;;;;;;;26.63;3.17;;;15.40;99.90;;;;;;5072487;28;20032;-81
2021/06/23 03:35:58;;;;;;;29.83;3.42;;;15.40;99.90;;;;;;5072339;28;20086;-81
2021/06/23 03:38:23;;;;;;;39.20;3.88;;;15.30;99.90;;;;;;5072390;28;20507;-81
2021/06/23 03:40:50;;;;;;;16.08;2.60;;;15.20;99.90;;;;;;5072347;28;20036;-81
2021/06/23 03:43:17;;;;;;;11.60;2.65;;;15.50;99.90;;;;;;5072436;28;20543;-81
2021/06/23 03:45:43;;;;;;;17.65;2.22;;;15.60;99.90;;;;;;5072017;28;20124;-81
2021/06/23 03:48:08;;;;;;;10.38;2.30;;;15.60;99.90;;;;;;5055219;28;20223;-81
2021/06/23 03:50:34;;;;;;;21.67;2.38;;;15.50;99.90;;;;;;5051023;28;20488;-81
2021/06/23 03:53:01;;;;;;;6.13;2.67;;;15.40;99.90;;;;;;5053988;28;20396;-81
2021/06/23 03:55:27;;;;;;;4.47;2.20;;;15.30;99.90;;;;;;5056240;28;20108;-81
2021/06/23 03:57:54;;;;;;;2.70;2.13;;;15.20;99.90;;;;;;5055109;28;20163;-81
2021/06/23 04:00:22;;;;;;;1.70;1.55;;;15.30;99.90;;;;;;5055753;28;20357;-81
2021/06/23 04:02:48;;;;;;;2.55;2.35;;;15.00;99.90;;;;;;5058949;28;20027;-81
2021/06/23 04:05:14;;;;;;;4.15;2.20;;;15.10;99.90;;;;;;5076056;28;20108;-81
2021/06/23 04:07:40;;;;;;;2.95;1.98;;;15.10;99.90;;;;;;5074997;28;20045;-81
2021/06/23 04:10:08;;;;;;;5.07;2.28;;;15.20;99.90;;;;;;5075933;28;20043;-81
2021/06/23 04:12:34;;;;;;;2.33;2.13;;;15.00;99.90;;;;;;5075942;28;20036;-82
2021/06/23 04:15:00;;;;;;;2.65;2.03;;;15.10;99.90;;;;;;5074404;28;20116;-81
2021/06/23 04:17:25;;;;;;;2.55;2.10;;;15.20;99.90;;;;;;5067469;28;20556;-81
2021/06/23 04:19:51;;;;;;;4.25;2.03;;;15.10;99.90;;;;;;5055586;28;20147;-82
2021/06/23 04:22:17;;;;;;;5.20;2.50;;;15.10;99.90;;;;;;5055816;28;20049;-81
2021/06/23 04:24:43;;;;;;;2.88;2.38;;;15.00;99.90;;;;;;5055719;28;20032;-81
2021/06/23 04:27:09;;;;;;;5.57;2.10;;;15.00;99.90;;;;;;5055142;28;20100;-81
2021/06/23 04:29:34;;;;;;;3.38;2.00;;;15.00;99.90;;;;;;5055309;28;20099;-82
2021/06/23 04:32:00;;;;;;;2.22;1.90;;;14.90;99.90;;;;;;5055679;28;20025;-81
2021/06/23 04:34:26;;;;;;;3.15;1.67;;;14.90;99.90;;;;;;5055722;28;20489;-82
2021/06/23 04:36:52;;;;;;;4.25;2.40;;;14.70;99.90;;;;;;5067869;28;20036;-82
2021/06/23 04:39:18;;;;;;;5.13;2.08;;;14.80;99.90;;;;;;5075292;28;20028;-82
2021/06/23 04:41:44;;;;;;;4.30;2.50;;;14.80;99.90;;;;;;5075490;28;20024;-82
2021/06/23 04:44:09;;;;;;;1.77;1.67;;;14.90;99.90;;;;;;5074937;28;20036;-82
2021/06/23 04:46:35;;;;;;;2.80;2.30;;;14.90;99.90;;;;;;5072219;28;20052;-81
2021/06/23 04:49:02;;;;;;;3.15;1.98;;;14.80;99.90;;;;;;5054022;28;20471;-82
2021/06/23 04:51:28;;;;;;;6.65;2.28;;;15.00;99.90;;;;;;5055297;28;20056;-81
2021/06/23 04:53:54;;;;;;;2.97;1.92;;;14.90;99.90;;;;;;5054000;28;20025;-81
2021/06/23 04:56:20;;;;;;;3.00;1.65;;;14.90;99.90;;;;;;5055056;28;20539;-81
2021/06/23 04:58:46;;;;;;;3.75;1.40;;;15.10;99.90;;;;;;5054741;28;20108;-81
2021/06/23 05:01:12;;;;;;;4.65;1.52;;;15.20;99.90;;;;;;5055626;28;20033;-82
2021/06/23 05:03:38;;;;;;;3.63;1.30;;;15.20;99.90;;;;;;5066954;28;20097;-82
2021/06/23 05:06:05;;;;;;;6.18;1.80;;;15.10;99.90;;;;;;5074467;28;20025;-81
2021/06/23 05:08:31;;;;;;;2.58;1.88;;;15.10;99.90;;;;;;5074959;28;20078;-81
2021/06/23 05:10:56;;;;;;;2.33;1.90;;;15.10;99.90;;;;;;5072902;28;20061;-82
2021/06/23 05:13:23;;;;;;;5.65;2.03;;;15.00;99.90;;;;;;5074448;28;20481;-81
2021/06/23 05:15:49;;;;;;;3.53;2.00;;;15.10;99.90;;;;;;5073583;28;20021;-82
2021/06/23 05:18:15;;;;;;;2.60;2.03;;;15.00;99.90;;;;;;5057884;28;20508;-81
2021/06/23 05:20:42;;;;;;;2.83;1.70;;;14.90;99.90;;;;;;5055706;28;20025;-81
2021/06/23 05:23:09;;;;;;;4.25;2.17;;;15.00;99.90;;;;;;5054747;28;20390;-82
2021/06/23 05:25:34;;;;;;;3.65;1.83;;;15.00;99.90;;;;;;5054445;28;20021;-82
2021/06/23 05:28:00;;;;;;;3.47;2.05;;;15.00;99.90;;;;;;5055011;28;20029;-82
2021/06/23 05:30:27;;;;;;;2.35;1.95;;;15.00;99.90;;;;;;5065086;28;20048;-81
2021/06/23 05:32:53;;;;;;;4.45;1.80;;;14.90;99.90;;;;;;5054070;28;20021;-81
2021/06/23 05:35:20;;;;;;;2.72;1.17;;;15.00;99.90;;;;;;5065441;28;20040;-81
2021/06/23 05:37:46;;;;;;;3.65;1.92;;;15.20;99.90;;;;;;5070509;28;20028;-81
2021/06/23 05:40:13;;;;;;;5.45;2.30;;;15.30;99.90;;;;;;5072957;28;20024;-81
2021/06/23 05:42:39;;;;;;;2.80;1.60;;;15.30;99.90;;;;;;5068633;28;20020;-82
2021/06/23 05:45:05;;;;;;;4.10;1.50;;;15.40;99.90;;;;;;5085352;28;20428;-82
2021/06/23 05:47:31;;;;;;;5.00;1.73;;;15.20;99.90;;;;;;5075997;28;20107;-82
2021/06/23 05:49:57;;;;;;;3.58;1.50;;;15.10;99.90;;;;;;5073168;28;20104;-82
2021/06/23 05:52:23;;;;;;;2.60;1.60;;;15.20;99.90;;;;;;5073654;28;20423;-81
2021/06/23 05:54:48;;;;;;;3.90;1.70;;;15.30;99.90;;;;;;5073409;28;20020;-82
2021/06/23 05:57:14;;;;;;;1.80;1.70;;;15.40;99.90;;;;;;5073121;28;20078;-81
2021/06/23 05:59:40;;;;;;;1.77;1.63;;;15.30;99.90;;;;;;5071432;28;20039;-82
2021/06/23 06:02:07;;;;;;;3.22;1.75;;;15.30;99.90;;;;;;5073290;28;20017;-82
2021/06/23 06:04:32;;;;;;;4.40;1.80;;;15.40;99.90;;;;;;5072834;28;20542;-82
2021/06/23 06:06:58;;;;;;;5.32;1.80;;;15.40;99.90;;;;;;5059666;28;20060;-82
2021/06/23 06:09:24;;;;;;;5.15;1.90;;;15.20;99.90;;;;;;5069529;28;20119;-81
2021/06/23 06:11:50;;;;;;;1.63;1.30;;;15.20;99.90;;;;;;5063588;28;20155;-82
2021/06/23 06:14:16;;;;;;;1.92;1.35;;;15.40;99.90;;;;;;5077581;28;20480;-82
2021/06/23 06:16:41;;;;;;;4.57;1.83;;;15.60;99.90;;;;;;5067395;28;20060;-82
2021/06/23 06:19:07;;;;;;;3.08;1.55;;;15.60;99.90;;;;;;5058123;28;20063;-81
2021/06/23 06:21:33;;;;;;;4.65;2.10;;;15.70;99.90;;;;;;5061022;28;20497;-82
2021/06/23 06:23:59;;;;;;;4.03;2.17;;;15.70;99.90;;;;;;5067723;28;20170;-82
2021/06/23 06:26:24;;;;;;;1.70;1.35;;;15.50;99.90;;;;;;5066448;28;20032;-82
2021/06/23 06:28:50;;;;;;;3.08;1.38;;;15.10;99.90;;;;;;5061509;28;20028;-82
2021/06/23 06:31:16;;;;;;;2.40;1.02;;;15.20;99.90;;;;;;5064562;28;20067;-82
2021/06/23 06:33:42;;;;;;;2.95;1.35;;;15.10;99.90;;;;;;5070545;28;20507;-82
2021/06/23 06:36:08;;;;;;;2.80;1.40;;;15.20;99.90;;;;;;5068466;28;20528;-82
2021/06/23 06:38:33;;;;;;;1.95;1.05;;;15.20;99.90;;;;;;5063791;28;20111;-82
2021/06/23 06:40:59;;;;;;;3.53;1.27;;;15.40;99.90;;;;;;5065516;28;20105;-82
2021/06/23 06:43:25;;;;;;;1.95;1.10;;;15.30;99.90;;;;;;5065419;28;20061;-82
2021/06/23 06:45:52;;;;;;;3.70;1.15;;;15.40;99.90;;;;;;5063284;28;20099;-82
2021/06/23 06:48:22;;;;;;;1.80;1.02;;;15.30;99.90;;;;;;5066647;28;20500;-82
2021/06/23 06:50:48;;;;;;;3.92;1.95;;;15.30;99.90;;;;;;5068427;28;20107;-82
2021/06/23 06:53:15;;;;;;;0.93;0.70;;;15.40;99.90;;;;;;5066845;28;20037;-82
2021/06/23 06:55:41;;;;;;;2.40;0.90;;;15.40;99.90;;;;;;5063462;28;20051;-82
2021/06/23 06:58:07;;;;;;;3.58;1.13;;;15.60;99.90;;;;;;5067036;28;20049;-82
2021/06/23 07:00:33;;;;;;;4.47;1.02;;;15.40;99.90;;;;;;5062432;28;20391;-82
2021/06/23 07:02:58;;;;;;;4.05;0.80;;;15.40;99.90;;;;;;5060730;28;20444;-82
2021/06/23 07:05:24;;;;;;;3.22;0.95;;;15.40;99.90;;;;;;5064954;28;20031;-78
2021/06/23 07:07:51;;;;;;;2.40;1.00;;;15.50;99.90;;;;;;5064282;28;20137;-82
2021/06/23 07:10:17;;;;;;;5.00;1.17;;;15.50;99.90;;;;;;5067112;28;20036;-82
2021/06/23 07:12:43;;;;;;;3.83;0.93;;;15.40;99.90;;;;;;5065931;28;20401;-80
2021/06/23 07:15:10;;;;;;;0.80;0.80;;;15.50;99.90;;;;;;5068447;28;20033;-78
2021/06/23 07:17:36;;;;;;;2.45;0.80;;;15.40;99.90;;;;;;5068806;28;20085;-78
2021/06/23 07:20:04;;;;;;;1.90;1.33;;;15.20;99.90;;;;;;5063948;28;20048;-78
2021/06/23 07:22:30;;;;;;;1.65;1.10;;;15.40;99.90;;;;;;5062472;28;20021;-78
2021/06/23 07:24:55;;;;;;;7.65;1.52;;;15.40;99.90;;;;;;5061394;28;20021;-78
2021/06/23 07:27:22;;;;;;;3.30;1.00;;;15.50;99.90;;;;;;5066348;28;20488;-78
2021/06/23 07:29:49;;;;;;;2.22;1.00;;;15.50;99.90;;;;;;5061445;28;20020;-79
2021/06/23 07:32:20;;;;;;;2.45;0.80;;;15.40;99.90;;;;;;5064655;28;20095;-79
2021/06/23 07:37:13;;;;;;;1.23;0.95;;;15.30;99.90;;;;;;5069905;28;20027;-79
2021/06/23 07:39:39;;;;;;;2.42;1.05;;;15.40;99.90;;;;;;5060861;28;20039;-78
2021/06/23 07:42:07;;;;;;;2.67;1.27;;;15.30;99.90;;;;;;5063661;28;20110;-78
2021/06/23 07:47:06;;;;;;;3.10;1.00;;;15.30;99.90;;;;;;5067394;28;20511;-78
2021/06/23 07:49:35;;;;;;;3.15;0.90;;;15.00;99.90;;;;;;5064633;28;20021;-78
2021/06/23 07:52:08;;;;;;;2.13;0.93;;;15.00;99.90;;;;;;5069921;28;20116;-79
2021/06/23 08:10:50;;;;;;;1.50;1.10;;;15.50;99.90;;;;;;5056906;28;20119;-79
2021/06/23 08:13:16;;;;;;;3.22;1.00;;;15.50;99.90;;;;;;5072024;28;20024;-78
2021/06/23 08:15:44;;;;;;;4.50;1.38;;;15.30;99.90;;;;;;5061611;28;20052;-79
2021/06/23 08:18:11;;;;;;;4.05;1.80;;;15.30;99.90;;;;;;5050886;28;20472;-79
2021/06/23 08:20:37;;;;;;;2.22;1.38;;;15.50;99.90;;;;;;5051543;28;20505;-79
2021/06/23 08:23:04;;;;;;;2.53;1.42;;;15.70;99.90;;;;;;5051970;28;20025;-79
2021/06/23 08:25:30;;;;;;;7.57;1.52;;;15.70;99.90;;;;;;5051743;28;20112;-79
2021/06/23 08:27:55;;;;;;;3.38;2.05;;;15.80;99.90;;;;;;5051808;28;20096;-79
2021/06/23 08:30:23;;;;;;;2.72;1.42;;;16.20;99.90;;;;;;5050509;28;20033;-79
2021/06/23 08:32:49;;;;;;;5.35;1.13;;;16.40;99.90;;;;;;5051974;28;20104;-79
2021/06/23 08:35:15;;;;;;;3.00;1.38;;;16.50;99.90;;;;;;5051504;28;20108;-79
2021/06/23 08:37:45;;;;;;;1.83;1.48;;;16.70;99.90;;;;;;5051895;28;20472;-79
2021/06/23 08:40:13;;;;;;;2.38;1.58;;;16.80;99.90;;;;;;5053490;28;20029;-79
2021/06/23 08:42:40;;;;;;;1.98;0.98;;;16.70;99.90;;;;;;5055353;28;20455;-79
2021/06/23 08:45:08;;;;;;;1.00;1.00;;;16.60;99.90;;;;;;5055399;28;20388;-79
2021/06/23 08:47:46;;;;;;;1.75;1.05;;;16.40;99.90;;;;;;5055433;28;20025;-79
2021/06/23 08:50:17;;;;;;;2.63;1.85;;;16.10;99.90;;;;;;5054950;28;20029;-79
2021/06/23 08:52:43;;;;;;;3.30;0.90;;;16.20;99.90;;;;;;5055192;28;20035;-79
2021/06/23 08:55:09;;;;;;;1.65;0.82;;;16.20;99.90;;;;;;5055153;28;20420;-79
2021/06/23 08:57:35;;;;;;;2.05;1.20;;;16.20;99.90;;;;;;5055324;28;20400;-79
2021/06/23 09:00:04;;;;;;;1.25;0.85;;;16.30;99.90;;;;;;5055010;28;20037;-79
2021/06/23 09:02:31;;;;;;;0.93;0.80;;;16.80;99.90;;;;;;5055139;28;20060;-79
2021/06/23 09:05:00;;;;;;;0.90;0.90;;;16.90;99.90;;;;;;5064980;28;20025;-79
2021/06/23 09:07:58;;;;;;;1.10;0.90;;;17.10;99.90;;;;;;5074931;28;20028;-79
2021/06/23 09:10:24;;;;;;;0.50;0.47;;;17.20;99.90;;;;;;5075058;28;20158;-79
2021/06/23 09:13:07;;;;;;;0.57;0.57;;;16.50;99.90;;;;;;5074892;28;20097;-79
2021/06/23 09:15:40;;;;;;;2.15;1.02;;;16.20;99.90;;;;;;5074953;28;20031;-79
2021/06/23 09:18:27;;;;;;;0.50;0.50;;;16.00;99.90;;;;;;5074679;28;20041;-79
2021/06/23 09:21:15;;;;;;;0.60;0.60;;;15.70;99.90;;;;;;5074682;28;20115;-79
2021/06/23 09:23:40;;;;;;;0.50;0.50;;;15.60;99.90;;;;;;5074830;28;20027;-79
2021/06/23 09:26:16;;;;;;;0.82;0.50;;;15.80;99.90;;;;;;5074443;28;20027;-79
2021/06/23 09:28:43;;;;;;;1.10;0.55;;;16.00;99.90;;;;;;5074636;28;20028;-79
2021/06/23 09:31:09;;;;;;;1.52;0.43;;;16.10;99.90;;;;;;5074503;28;20031;-79
2021/06/23 09:33:36;;;;;;;0.60;0.47;;;16.30;99.90;;;;;;5074237;28;20035;-79
2021/06/23 09:36:09;;;;;;;0.73;0.50;;;16.40;99.90;;;;;;5073027;28;20488;-79
2021/06/23 09:38:47;;;;;;;1.05;0.55;;;16.90;99.90;;;;;;5074354;28;20020;-79
2021/06/23 09:41:27;;;;;;;0.50;0.50;;;17.00;99.90;;;;;;5074378;28;20036;-79
2021/06/23 09:43:56;;;;;;;1.13;1.02;;;16.60;99.90;;;;;;5074447;28;20540;-79
2021/06/23 09:46:24;;;;;;;1.60;1.50;;;16.30;99.90;;;;;;5074469;28;20103;-79
2021/06/23 09:49:10;;;;;;;1.30;1.20;;;15.80;99.90;;;;;;5073831;28;20017;-79
2021/06/23 09:51:48;;;;;;;0.50;0.50;;;15.70;99.90;;;;;;5073798;28;20029;-79
2021/06/23 09:54:17;;;;;;;2.50;0.43;;;15.50;99.90;;;;;;5073943;28;20047;-79
2021/06/23 09:56:46;;;;;;;1.10;0.40;;;15.50;99.90;;;;;;5074241;28;20020;-79
2021/06/23 09:59:40;;;;;;;0.35;0.35;;;15.50;99.90;;;;;;5073809;28;20029;-79
2021/06/23 10:02:23;;;;;;;0.90;0.50;;;15.50;99.90;;;;;;5073558;28;20040;-79
2021/06/23 10:04:49;;;;;;;0.60;0.47;;;15.40;99.90;;;;;;5073782;28;20020;-79
2021/06/23 10:07:38;;;;;;;0.40;0.40;;;15.60;99.90;;;;;;5073635;28;20054;-79
2021/06/23 10:10:05;;;;;;;0.65;0.40;;;16.00;99.90;;;;;;5073841;28;20024;-79
2021/06/23 10:12:31;;;;;;;0.68;0.35;;;16.10;99.90;;;;;;5073682;28;20029;-79
2021/06/23 10:14:58;;;;;;;0.70;0.70;;;16.40;99.90;;;;;;5073759;28;20101;-79
2021/06/23 10:17:24;;;;;;;0.85;0.50;;;16.40;99.90;;;;;;5071800;28;20082;-79
2021/06/23 10:19:50;;;;;;;0.50;0.50;;;16.40;99.90;;;;;;5073428;28;20045;-79
2021/06/23 10:22:17;;;;;;;0.63;0.47;;;16.60;99.90;;;;;;5073578;28;20609;-79
2021/06/23 10:24:44;;;;;;;1.92;0.63;;;16.50;99.90;;;;;;5073431;28;20023;-79
2021/06/23 10:27:11;;;;;;;2.65;0.50;;;16.40;99.90;;;;;;5073385;28;20103;-79
2021/06/23 10:29:40;;;;;;;0.90;0.70;;;16.20;99.90;;;;;;5073467;28;20453;-79
2021/06/23 10:32:07;;;;;;;0.52;0.40;;;15.90;99.90;;;;;;5073116;28;20059;-79
2021/06/23 10:34:33;;;;;;;0.60;0.60;;;15.90;99.90;;;;;;5073354;28;20028;-79
2021/06/23 10:37:00;;;;;;;0.70;0.50;;;16.10;99.90;;;;;;5073363;28;20024;-79
2021/06/23 10:39:33;;;;;;;1.30;0.50;;;16.20;99.90;;;;;;5072877;28;20033;-79
2021/06/23 10:42:01;;;;;;;0.77;0.65;;;16.50;99.90;;;;;;5071866;28;20388;-79
2021/06/23 10:44:31;;;;;;;0.65;0.60;;;17.00;99.90;;;;;;5071901;28;20047;-79
2021/06/23 10:47:02;;;;;;;0.88;0.60;;;17.40;99.90;;;;;;5072770;28;20016;-79
2021/06/23 10:49:44;;;;;;;1.95;0.90;;;17.80;99.90;;;;;;5073011;28;20108;-80
2021/06/23 10:52:22;;;;;;;1.08;0.60;;;17.50;99.90;;;;;;5073023;28;20046;-80
2021/06/23 10:54:54;;;;;;;0.70;0.70;;;17.60;99.90;;;;;;5072871;28;20396;-79
2021/06/23 10:57:33;;;;;;;2.10;0.70;;;17.40;99.90;;;;;;5072926;28;20028;-80
2021/06/23 11:00:26;;;;;;;0.50;0.50;;;17.10;99.90;;;;;;5072564;28;20024;-80
2021/06/23 11:03:08;;;;;;;0.88;0.50;;;17.20;99.90;;;;;;5066316;28;20064;-80
2021/06/23 11:05:35;;;;;;;1.95;0.60;;;17.30;99.90;;;;;;5072500;28;20082;-79
2021/06/23 11:08:01;;;;;;;0.50;0.50;;;17.10;99.90;;;;;;5072725;28;20484;-80
2021/06/23 11:10:35;;;;;;;0.60;0.60;;;17.50;99.90;;;;;;5072787;28;20056;-80
2021/06/23 11:13:06;;;;;;;1.33;0.50;;;18.30;99.90;;;;;;5072726;28;20020;-80
2021/06/23 11:15:32;;;;;;;0.60;0.60;;;19.30;99.90;;;;;;5072131;28;20028;-79
2021/06/23 11:18:25;;;;;;;0.73;0.47;;;19.40;99.90;;;;;;5072599;28;20020;-80
2021/06/23 11:20:58;;;;;;;0.60;0.60;;;19.50;99.90;;;;;;5071542;28;20067;-80
2021/06/23 11:23:44;;;;;;;0.60;0.60;;;20.30;99.90;;;;;;5052495;28;20049;-80
2021/06/23 11:26:30;;;;;;;0.47;0.47;;;19.90;99.90;;;;;;5052489;28;20021;-80
2021/06/23 11:28:58;;;;;;;2.67;0.75;;;19.60;99.90;;;;;;5048250;28;20503;-80
2021/06/23 11:31:43;;;;;;;0.50;0.50;;;19.40;99.90;;;;;;5052313;28;20031;-80
2021/06/23 11:34:10;;;;;;;2.38;0.60;;;19.10;99.90;;;;;;5051258;28;20045;-79
2021/06/23 11:36:36;;;;;;;0.50;0.50;;;19.20;99.90;;;;;;5052133;28;20033;-80
2021/06/23 11:39:04;;;;;;;0.52;0.52;;;19.80;99.90;;;;;;5052326;28;20032;-80
2021/06/23 11:41:31;;;;;;;0.90;0.88;;;19.60;99.90;;;;;;5052215;28;20566;-80
2021/06/23 11:43:56;;;;;;;0.80;0.68;;;19.80;99.90;;;;;;5052075;28;20029;-80
2021/06/23 11:46:22;;;;;;;0.70;0.70;;;20.70;99.90;;;;;;5052269;28;20035;-80
2021/06/23 11:48:48;;;;;;;1.77;0.63;;;20.80;99.90;;;;;;5052348;28;20507;-80
2021/06/23 11:51:14;;;;;;;0.52;0.52;;;20.20;99.90;;;;;;5052276;28;20104;-80
2021/06/23 11:53:41;;;;;;;0.70;0.70;;;20.50;99.90;;;;;;5052343;28;20029;-80
2021/06/23 11:56:07;;;;;;;0.95;0.80;;;21.50;99.90;;;;;;5052297;28;20029;-80
2021/06/23 11:58:33;;;;;;;0.57;0.57;;;23.40;99.90;;;;;;5051751;28;20036;-80
2021/06/23 12:00:59;;;;;;;1.95;0.60;;;25.30;99.90;;;;;;5052238;28;20025;-80
2021/06/23 12:03:25;;;;;;;1.73;0.70;;;24.80;99.90;;;;;;5051852;28;20025;-80
2021/06/23 12:05:51;;;;;;;0.80;0.75;;;24.00;99.90;;;;;;5052048;28;20044;-80
2021/06/23 12:08:17;;;;;;;0.50;0.50;;;23.60;99.90;;;;;;5052267;28;20108;-80
2021/06/23 12:10:45;;;;;;;0.60;0.60;;;22.40;99.90;;;;;;5051864;28;20021;-80
2021/06/23 12:13:13;;;;;;;0.60;0.60;;;22.30;99.90;;;;;;5052195;28;20159;-80
2021/06/23 12:15:41;;;;;;;0.40;0.40;;;21.90;99.90;;;;;;5055733;28;20021;-80
2021/06/23 12:18:09;;;;;;;0.52;0.52;;;22.10;99.90;;;;;;5055921;28;20040;-80
2021/06/23 12:20:37;;;;;;;0.57;0.50;;;20.80;99.90;;;;;;5055567;28;20039;-80
2021/06/23 12:23:04;;;;;;;0.50;0.50;;;19.90;99.90;;;;;;5055950;28;20131;-80
2021/06/23 12:25:38;;;;;;;0.57;0.50;;;19.50;99.90;;;;;;5055798;28;20095;-80
2021/06/23 12:28:06;;;;;;;0.95;0.85;;;18.80;99.90;;;;;;5055402;28;20033;-80
2021/06/23 12:30:33;;;;;;;0.60;0.60;;;18.50;99.90;;;;;;5055600;28;20017;-80
2021/06/23 12:33:03;;;;;;;0.95;0.40;;;17.90;99.90;;;;;;5054320;28;20070;-80
2021/06/23 12:35:30;;;;;;;0.50;0.40;;;17.80;99.90;;;;;;5055445;28;20025;-80
2021/06/23 12:37:56;;;;;;;0.82;0.40;;;17.40;99.90;;;;;;5055541;28;20048;-80
2021/06/23 12:40:22;;;;;;;2.28;0.50;;;17.40;99.90;;;;;;5055553;28;20443;-80
2021/06/23 12:42:48;;;;;;;0.65;0.30;;;17.10;99.90;;;;;;5055103;28;20040;-80
2021/06/23 12:45:15;;;;;;;0.30;0.30;;;17.20;99.90;;;;;;5054033;28;20021;-80
2021/06/23 12:47:40;;;;;;;0.73;0.73;;;17.30;99.90;;;;;;5055378;28;20083;-79
2021/06/23 12:50:09;;;;;;;0.80;0.57;;;17.80;99.90;;;;;;5055282;28;20488;-80
2021/06/23 12:52:35;;;;;;;0.50;0.50;;;18.10;99.90;;;;;;5055305;28;20021;-80
2021/06/23 12:55:00;;;;;;;0.95;0.82;;;18.10;99.90;;;;;;5055308;28;20127;-80
2021/06/23 12:57:26;;;;;;;1.15;1.05;;;18.30;99.90;;;;;;5054696;28;20119;-80
2021/06/23 12:59:52;;;;;;;1.00;0.90;;;18.50;99.90;;;;;;5055266;28;20540;-80
2021/06/23 13:02:19;;;;;;;0.70;0.70;;;18.40;99.90;;;;;;5055124;28;20112;-80
2021/06/23 13:04:45;;;;;;;1.70;0.50;;;18.40;99.90;;;;;;5053478;28;20534;-80
2021/06/23 13:07:11;;;;;;;0.50;0.50;;;18.50;99.90;;;;;;5054926;28;20025;-80
2021/06/23 13:09:36;;;;;;;6.95;0.90;;;18.40;99.90;;;;;;5054913;28;20508;-80
2021/06/23 13:12:03;;;;;;;2.55;0.50;;;18.10;99.90;;;;;;5054802;28;20122;-80
2021/06/23 13:14:28;;;;;;;4.57;0.80;;;17.80;99.90;;;;;;5054774;28;20377;-80